createdAt,value
2023-03-04T00:02:08.083Z,58.65
2023-03-04T00:04:34.515Z,57.67
2023-03-04T00:07:00.899Z,53.72
2023-03-04T00:09:27.327Z,52.90
2023-03-04T00:11:53.847Z,57.83
2023-03-04T00:14:20.533Z,52.78
2023-03-04T00:16:49.039Z,54.70
2023-03-04T00:19:15.452Z,50.05
2023-03-04T00:21:41.936Z,50.10
2023-03-04T00:24:08.530Z,56.40
2023-03-04T00:26:34.940Z,52.80
2023-03-04T00:29:01.339Z,62.95
2023-03-04T00:31:27.952Z,57.03
2023-03-04T00:33:54.357Z,57.80
2023-03-04T00:36:20.966Z,56.75
2023-03-04T00:38:47.436Z,60.15
2023-03-04T00:41:13.844Z,57.58
2023-03-04T00:43:41.384Z,62.58
2023-03-04T00:46:07.892Z,68.00
2023-03-04T00:48:35.175Z,62.28
2023-03-04T00:51:01.580Z,53.72
2023-03-04T00:53:27.997Z,62.83
2023-03-04T00:55:54.398Z,55.60
2023-03-04T00:58:21.054Z,57.30
2023-03-04T01:00:47.499Z,59.70
2023-03-04T01:03:14.034Z,57.67
2023-03-04T01:05:40.602Z,62.70
2023-03-04T01:08:07.139Z,58.95
2023-03-04T01:10:33.926Z,64.63
2023-03-04T01:13:00.459Z,66.30
2023-03-04T01:15:27.104Z,67.18
2023-03-04T01:17:54.783Z,70.82
2023-03-04T01:20:21.326Z,68.82
2023-03-04T01:22:47.861Z,72.38
2023-03-04T01:25:14.654Z,65.32
2023-03-04T01:27:41.165Z,69.50
2023-03-04T01:30:08.184Z,72.90
2023-03-04T01:32:34.748Z,83.22
2023-03-04T01:35:01.224Z,84.32
2023-03-04T01:37:29.267Z,82.75
2023-03-04T01:39:55.706Z,77.80
2023-03-04T01:42:24.563Z,71.10
2023-03-04T01:44:51.819Z,75.32
2023-03-04T01:47:19.480Z,67.80
2023-03-04T01:49:51.100Z,71.70
2023-03-04T01:52:17.682Z,71.22
2023-03-04T01:54:44.249Z,76.30
2023-03-04T01:57:20.220Z,69.22
2023-03-04T01:59:47.755Z,70.13
2023-03-04T02:02:14.771Z,69.82
2023-03-04T02:04:42.565Z,78.57
2023-03-04T02:07:09.225Z,82.15
2023-03-04T02:09:37.284Z,75.53
2023-03-04T02:12:04.512Z,78.88
2023-03-04T02:14:31.324Z,76.88
2023-03-04T02:16:57.844Z,81.93
2023-03-04T02:19:43.245Z,78.60
2023-03-04T02:22:09.825Z,83.20
2023-03-04T02:24:43.094Z,86.88
2023-03-04T02:27:09.611Z,89.97
2023-03-04T02:29:36.109Z,89.88
2023-03-04T02:32:03.399Z,93.97
2023-03-04T02:34:37.289Z,93.00
2023-03-04T02:37:04.261Z,91.80
2023-03-04T02:39:40.433Z,92.57
2023-03-04T02:42:07.338Z,92.53
2023-03-04T02:44:40.584Z,88.68
2023-03-04T02:47:09.758Z,88.35
2023-03-04T02:49:38.759Z,95.25
2023-03-04T02:52:19.493Z,86.07
2023-03-04T02:54:46.233Z,86.20
2023-03-04T02:57:14.826Z,90.10
2023-03-04T02:59:44.583Z,87.18
2023-03-04T03:02:16.644Z,84.10
2023-03-04T03:04:43.103Z,89.28
2023-03-04T03:07:13.025Z,89.32
2023-03-04T03:09:39.749Z,84.95
2023-03-04T03:12:06.392Z,87.00
2023-03-04T03:14:33.462Z,101.07
2023-03-04T03:17:00.796Z,84.10
2023-03-04T03:19:27.171Z,91.45
2023-03-04T03:21:54.710Z,89.97
2023-03-04T03:24:21.274Z,89.47
2023-03-04T03:26:47.725Z,91.85
2023-03-04T03:29:14.388Z,86.32
2023-03-04T03:31:40.966Z,90.55
2023-03-04T03:34:07.522Z,86.35
2023-03-04T03:36:34.232Z,90.07
2023-03-04T03:39:00.672Z,86.85
2023-03-04T03:41:27.107Z,90.38
2023-03-04T03:43:53.507Z,85.60
2023-03-04T03:46:19.914Z,82.18
2023-03-04T03:48:46.383Z,83.63
2023-03-04T03:51:12.833Z,86.45
2023-03-04T03:53:39.301Z,86.35
2023-03-04T03:56:06.204Z,96.00
2023-03-04T03:58:32.761Z,89.22
2023-03-04T04:00:59.192Z,93.40
2023-03-04T04:03:26.002Z,85.38
2023-03-04T04:05:52.619Z,87.00
2023-03-04T04:08:19.144Z,92.63
2023-03-04T04:10:45.620Z,94.85
2023-03-04T04:13:12.267Z,83.85
2023-03-04T04:15:39.619Z,91.25
2023-03-04T04:18:07.356Z,86.90
2023-03-04T04:20:35.237Z,87.00
2023-03-04T04:23:02.746Z,97.22
2023-03-04T04:25:29.565Z,88.78
2023-03-04T04:27:55.951Z,88.88
2023-03-04T04:30:22.407Z,106.63
2023-03-04T04:32:48.818Z,85.78
2023-03-04T04:35:15.316Z,95.68
2023-03-04T04:37:41.797Z,90.20
2023-03-04T04:40:08.782Z,93.10
2023-03-04T04:42:35.277Z,91.35
2023-03-04T04:45:01.750Z,88.40
2023-03-04T04:47:28.183Z,86.57
2023-03-04T04:49:54.683Z,94.35
2023-03-04T04:52:21.156Z,90.10
2023-03-04T04:54:47.618Z,90.47
2023-03-04T04:57:14.088Z,92.85
2023-03-04T04:59:40.564Z,95.72
2023-03-04T05:02:06.966Z,90.72
2023-03-04T05:04:33.415Z,102.72
2023-03-04T05:06:59.823Z,92.38
2023-03-04T05:09:26.219Z,90.47
2023-03-04T05:11:52.902Z,91.22
2023-03-04T05:14:19.309Z,81.18
2023-03-04T05:16:45.775Z,92.85
2023-03-04T05:19:12.274Z,83.38
2023-03-04T05:21:38.784Z,84.95
2023-03-04T05:24:05.482Z,89.10
2023-03-04T05:26:31.965Z,87.00
2023-03-04T05:28:58.359Z,93.40
2023-03-04T05:31:24.827Z,90.47
2023-03-04T05:33:51.281Z,93.25
2023-03-04T05:36:17.724Z,94.80
2023-03-04T05:38:44.158Z,93.65
2023-03-04T05:41:10.576Z,94.82
2023-03-04T05:43:38.333Z,103.68
2023-03-04T05:46:05.097Z,105.18
2023-03-04T05:48:31.921Z,98.07
2023-03-04T05:51:00.744Z,99.00
2023-03-04T05:53:28.031Z,101.75
2023-03-04T05:55:54.676Z,102.63
2023-03-04T05:58:21.642Z,108.53
2023-03-04T06:00:48.315Z,109.07
2023-03-04T06:03:20.382Z,107.90
2023-03-04T06:05:46.957Z,112.57
2023-03-04T06:08:13.918Z,102.28
2023-03-04T06:10:41.795Z,99.78
2023-03-04T06:13:09.228Z,97.43
2023-03-04T06:15:35.820Z,101.72
2023-03-04T06:18:02.584Z,102.63
2023-03-04T06:20:29.160Z,108.75
2023-03-04T06:22:55.586Z,102.60
2023-03-04T06:25:22.034Z,111.38
2023-03-04T06:27:50.539Z,96.63
2023-03-04T06:30:17.812Z,92.45
2023-03-04T06:32:44.365Z,94.57
2023-03-04T06:35:12.460Z,91.40
2023-03-04T06:37:39.006Z,96.82
2023-03-04T06:40:07.620Z,88.13
2023-03-04T06:42:35.597Z,89.20
2023-03-04T06:45:03.321Z,92.72
2023-03-04T06:47:29.855Z,82.43
2023-03-04T06:49:56.287Z,92.60
2023-03-04T06:52:22.822Z,83.78
2023-03-04T06:54:49.210Z,91.95
2023-03-04T06:57:15.686Z,87.93
2023-03-04T06:59:42.075Z,89.57
2023-03-04T07:02:12.440Z,86.38
2023-03-04T07:04:39.028Z,95.68
2023-03-04T07:07:05.543Z,94.15
2023-03-04T07:09:32.405Z,92.65
2023-03-04T07:11:58.809Z,83.32
2023-03-04T07:14:25.811Z,86.65
2023-03-04T07:16:52.214Z,86.22
2023-03-04T07:19:18.844Z,90.53
2023-03-04T07:21:45.427Z,82.05
2023-03-04T07:24:11.867Z,96.82
2023-03-04T07:26:39.165Z,94.25
2023-03-04T07:29:05.774Z,81.70
2023-03-04T07:31:34.714Z,98.72
2023-03-04T07:34:04.593Z,88.45
2023-03-04T07:36:31.918Z,88.57
2023-03-04T07:38:58.356Z,94.55
2023-03-04T07:41:26.583Z,88.22
2023-03-04T07:43:53.356Z,84.30
2023-03-04T07:46:19.940Z,72.38
2023-03-04T07:48:46.503Z,73.50
2023-03-04T07:51:18.266Z,71.05
2023-03-04T07:53:47.852Z,78.78
2023-03-04T07:56:23.173Z,87.40
2023-03-04T07:58:49.939Z,82.25
2023-03-04T08:01:21.873Z,77.55
2023-03-04T08:03:48.298Z,68.30
2023-03-04T08:06:17.103Z,71.47
2023-03-04T08:08:43.891Z,75.65
2023-03-04T08:11:19.075Z,77.15
2023-03-04T08:13:45.916Z,61.58
2023-03-04T08:16:15.518Z,64.43
2023-03-04T08:18:48.304Z,66.55
2023-03-04T08:21:16.567Z,62.88
2023-03-04T08:23:43.040Z,62.20
2023-03-04T08:26:16.858Z,58.53
2023-03-04T08:28:43.635Z,52.45
2023-03-04T08:31:10.144Z,56.22
2023-03-04T08:33:36.600Z,53.35
2023-03-04T08:36:03.162Z,56.05
2023-03-04T08:38:29.591Z,53.60
2023-03-04T08:40:56.797Z,56.25
2023-03-04T08:43:25.015Z,56.30
2023-03-04T08:45:52.816Z,63.47
2023-03-04T08:48:20.277Z,54.40
2023-03-04T08:50:47.280Z,54.17
2023-03-04T08:53:14.280Z,59.85
2023-03-04T08:55:42.226Z,73.00
2023-03-04T08:58:09.979Z,68.28
2023-03-04T09:00:38.588Z,53.28
2023-03-04T09:03:05.220Z,61.03
2023-03-04T09:05:32.602Z,52.38
2023-03-04T09:07:59.087Z,55.08
2023-03-04T09:10:26.057Z,53.78
2023-03-04T09:12:52.539Z,57.28
2023-03-04T09:15:19.197Z,56.33
2023-03-04T09:17:45.640Z,50.97
2023-03-04T09:20:13.058Z,54.33
2023-03-04T09:22:41.284Z,48.55
2023-03-04T09:25:12.703Z,50.33
2023-03-04T09:27:39.500Z,48.05
2023-03-04T09:30:06.657Z,55.28
2023-03-04T09:32:33.128Z,51.78
2023-03-04T09:34:59.583Z,56.28
2023-03-04T09:37:26.016Z,54.40
2023-03-04T09:39:52.396Z,60.65
2023-03-04T09:42:30.117Z,65.13
2023-03-04T09:44:57.682Z,56.33
2023-03-04T09:47:26.080Z,51.92
2023-03-04T09:50:02.252Z,60.92
2023-03-04T09:53:12.389Z,55.13
2023-03-04T09:55:42.438Z,62.75
2023-03-04T09:58:35.903Z,65.53
2023-03-04T10:01:11.940Z,53.47
2023-03-04T10:04:26.508Z,55.03
2023-03-04T10:06:54.619Z,65.45
2023-03-04T10:09:29.803Z,57.63
2023-03-04T10:12:01.675Z,63.50
2023-03-04T10:14:51.498Z,66.00
2023-03-04T10:17:36.978Z,57.20
2023-03-04T10:20:15.313Z,58.67
2023-03-04T10:22:51.848Z,58.72
2023-03-04T10:25:23.136Z,63.08
2023-03-04T10:27:59.450Z,55.20
2023-03-04T10:30:44.197Z,59.75
2023-03-04T10:33:15.434Z,50.58
2023-03-04T10:35:46.518Z,50.50
2023-03-04T10:38:13.756Z,62.28
2023-03-04T10:40:42.083Z,55.67
2023-03-04T10:43:20.273Z,68.22
2023-03-04T10:45:48.897Z,54.85
2023-03-04T10:48:25.257Z,46.28
2023-03-04T10:50:51.793Z,61.30
2023-03-04T10:53:39.902Z,52.58
2023-03-04T10:56:34.989Z,65.50
2023-03-04T10:59:34.247Z,52.63
2023-03-04T11:02:15.485Z,52.85
2023-03-04T11:04:41.964Z,49.10
2023-03-04T11:07:10.710Z,46.10
2023-03-04T11:09:37.853Z,44.13
2023-03-04T11:12:11.104Z,44.80
2023-03-04T11:14:44.293Z,47.55
2023-03-04T11:17:19.495Z,48.40
2023-03-04T11:19:51.290Z,48.40
2023-03-04T11:22:21.647Z,49.13
2023-03-04T11:25:18.131Z,48.63
2023-03-04T11:27:48.239Z,43.05
2023-03-04T11:30:39.360Z,49.28
2023-03-04T11:33:22.073Z,48.20
2023-03-04T11:36:06.462Z,55.38
2023-03-04T11:38:44.341Z,49.92
2023-03-04T11:41:28.540Z,49.17
2023-03-04T11:43:55.030Z,53.30
2023-03-04T11:46:43.273Z,49.10
2023-03-04T11:49:25.001Z,56.70
2023-03-04T11:52:06.791Z,57.70
2023-03-04T11:54:59.293Z,58.15
2023-03-04T11:57:28.455Z,47.15
2023-03-04T12:00:13.142Z,51.08
2023-03-04T12:03:03.805Z,54.03
2023-03-04T12:05:58.201Z,53.47
2023-03-04T12:08:30.594Z,55.50
2023-03-04T12:11:09.233Z,61.72
2023-03-04T12:13:49.532Z,50.83
2023-03-04T12:16:24.406Z,48.50
2023-03-04T12:19:24.857Z,53.15
2023-03-04T12:22:12.891Z,47.90
2023-03-04T12:25:02.710Z,55.42
2023-03-04T12:27:53.604Z,52.35
2023-03-04T12:30:35.195Z,51.00
2023-03-04T12:36:03.229Z,49.53
2023-03-04T12:38:39.075Z,51.97
2023-03-04T12:41:21.653Z,51.70
2023-03-04T12:44:08.280Z,53.78
2023-03-04T12:46:43.425Z,49.40
2023-03-04T12:49:30.535Z,50.53
2023-03-04T12:52:03.111Z,53.45
2023-03-04T12:54:37.591Z,47.67
2023-03-04T12:57:17.170Z,51.65
2023-03-04T13:00:07.989Z,47.92
2023-03-04T13:02:54.870Z,47.00
2023-03-04T13:05:35.520Z,48.25
2023-03-04T13:08:15.393Z,59.37
2023-03-04T13:10:41.847Z,46.15
2023-03-04T13:13:41.815Z,46.83
2023-03-04T13:16:11.427Z,49.72
2023-03-04T13:18:40.557Z,52.58
2023-03-04T13:21:22.805Z,46.33
2023-03-04T13:23:50.007Z,49.97
2023-03-04T13:26:20.721Z,47.97
2023-03-04T13:28:53.461Z,52.88
2023-03-04T13:31:26.987Z,45.40
2023-03-04T13:33:56.343Z,48.85
2023-03-04T13:36:54.839Z,48.00
2023-03-04T13:39:25.755Z,47.85
2023-03-04T13:41:54.171Z,47.65
2023-03-04T13:44:45.182Z,49.40
2023-03-04T13:47:18.640Z,51.00
2023-03-04T13:49:45.226Z,50.78
2023-03-04T13:52:39.579Z,47.60
2023-03-04T13:55:33.966Z,48.67
2023-03-04T13:58:02.225Z,47.60
2023-03-04T14:00:29.247Z,53.63
2023-03-04T14:02:55.708Z,52.13
2023-03-04T14:05:22.124Z,53.13
2023-03-04T14:07:48.531Z,61.42
2023-03-04T14:10:15.032Z,56.40
2023-03-04T14:12:46.288Z,53.03
2023-03-04T14:15:21.047Z,51.45
2023-03-04T14:17:51.983Z,53.47
2023-03-04T14:20:24.225Z,58.88
2023-03-04T14:22:50.715Z,53.78
2023-03-04T14:25:24.683Z,53.50
2023-03-04T14:28:02.804Z,53.88
2023-03-04T14:30:42.268Z,51.20
2023-03-04T14:33:17.692Z,51.30
2023-03-04T14:35:53.506Z,51.10
2023-03-04T14:38:35.446Z,53.70
2023-03-04T14:41:07.528Z,56.60
2023-03-04T14:43:43.344Z,53.67
2023-03-04T14:46:15.590Z,54.78
2023-03-04T14:48:49.096Z,55.20
2023-03-04T14:51:46.558Z,56.83
2023-03-04T14:54:37.426Z,54.42
2023-03-04T14:57:21.109Z,58.42
2023-03-04T14:59:47.744Z,59.92
2023-03-04T15:02:19.846Z,52.65
2023-03-04T15:04:48.146Z,51.10
2023-03-04T15:07:28.635Z,51.80
2023-03-04T15:09:55.798Z,55.40
2023-03-04T15:12:40.098Z,57.70
2023-03-04T15:15:34.889Z,59.13
2023-03-04T15:18:22.855Z,58.15
2023-03-04T15:21:01.414Z,54.65
2023-03-04T15:23:30.198Z,57.85
2023-03-04T15:25:58.990Z,58.70
2023-03-04T15:28:27.114Z,57.65
2023-03-04T15:30:54.397Z,58.88
2023-03-04T15:33:21.411Z,61.90
2023-03-04T15:35:59.071Z,56.50
2023-03-04T15:38:26.469Z,75.53
2023-03-04T15:40:54.592Z,67.90
2023-03-04T15:43:23.055Z,62.35
2023-03-04T15:45:50.765Z,59.67
2023-03-04T15:48:18.910Z,59.10
2023-03-04T15:50:54.388Z,57.53
2023-03-04T15:53:27.000Z,58.75
2023-03-04T15:55:53.912Z,59.28
2023-03-04T15:58:20.583Z,70.25
2023-03-04T16:00:47.038Z,65.20
2023-03-04T16:03:18.850Z,69.60
2023-03-04T16:05:47.944Z,68.75
2023-03-04T16:08:16.756Z,64.93
2023-03-04T16:10:44.451Z,69.82
2023-03-04T16:13:22.551Z,69.13
2023-03-04T16:15:49.309Z,66.60
2023-03-04T16:18:16.148Z,77.97
2023-03-04T16:20:46.186Z,70.53
2023-03-04T16:23:16.596Z,67.88
2023-03-04T16:25:45.018Z,78.40
2023-03-04T16:28:12.736Z,84.05
2023-03-04T16:30:40.512Z,73.75
2023-03-04T16:33:07.169Z,77.97
2023-03-04T16:35:36.619Z,76.68
2023-03-04T16:38:06.199Z,83.47
2023-03-04T16:40:33.013Z,85.78
2023-03-04T16:42:59.432Z,79.03
2023-03-04T16:45:30.369Z,72.78
2023-03-04T16:47:57.228Z,73.28
2023-03-04T16:50:27.302Z,77.68
2023-03-04T16:52:55.378Z,84.35
2023-03-04T16:55:25.485Z,77.70
2023-03-04T16:57:52.982Z,74.18
2023-03-04T17:00:22.201Z,78.13
2023-03-04T17:02:58.113Z,78.28
2023-03-04T17:05:27.541Z,73.88
2023-03-04T17:07:53.985Z,83.05
2023-03-04T17:10:21.214Z,76.07
2023-03-04T17:12:47.964Z,74.50
2023-03-04T17:15:15.127Z,65.05
2023-03-04T17:17:42.477Z,68.65
2023-03-04T17:20:12.243Z,68.65
2023-03-04T17:22:38.673Z,70.72
2023-03-04T17:25:05.529Z,73.72
2023-03-04T17:27:32.403Z,65.70
2023-03-04T17:29:58.818Z,71.93
2023-03-04T17:32:27.360Z,72.28
2023-03-04T17:34:55.682Z,70.68
2023-03-04T17:37:22.433Z,68.68
2023-03-04T17:39:48.848Z,68.18
2023-03-04T17:42:15.415Z,69.00
2023-03-04T17:44:42.143Z,64.50
2023-03-04T17:47:08.598Z,66.75
2023-03-04T17:49:35.080Z,64.28
2023-03-04T17:52:03.000Z,63.97
2023-03-04T17:54:29.481Z,65.00
2023-03-04T17:56:55.918Z,71.45
2023-03-04T17:59:22.436Z,61.53
2023-03-04T18:01:51.694Z,54.78
2023-03-04T18:04:20.167Z,61.17
2023-03-04T18:06:46.866Z,59.97
2023-03-04T18:09:13.358Z,63.75
2023-03-04T18:11:40.947Z,55.90
2023-03-04T18:14:07.703Z,57.75
2023-03-04T18:16:34.549Z,62.20
2023-03-04T18:19:01.849Z,63.33
2023-03-04T18:21:29.611Z,56.17
2023-03-04T18:23:56.928Z,54.40
2023-03-04T18:26:24.139Z,64.22
2023-03-04T18:28:51.928Z,59.15
2023-03-04T18:31:24.693Z,57.15
2023-03-04T18:33:51.827Z,58.92
2023-03-04T18:36:18.380Z,67.15
2023-03-04T18:38:44.870Z,58.45
2023-03-04T18:41:13.581Z,56.70
2023-03-04T18:43:40.465Z,59.08
2023-03-04T18:46:30.745Z,57.72
2023-03-04T18:49:01.999Z,58.10
2023-03-04T18:51:29.104Z,56.60
2023-03-04T18:53:55.518Z,57.03
2023-03-04T18:56:31.381Z,69.05
2023-03-04T18:58:59.193Z,49.83
2023-03-04T19:01:26.280Z,55.75
2023-03-04T19:03:54.298Z,54.65
2023-03-04T19:06:20.824Z,55.60
2023-03-04T19:08:47.350Z,50.47
2023-03-04T19:11:14.634Z,52.55
2023-03-04T19:13:41.196Z,51.55
2023-03-04T19:16:07.942Z,55.53
2023-03-04T19:18:34.385Z,51.10
2023-03-04T19:21:00.840Z,65.40
2023-03-04T19:23:29.224Z,53.55
2023-03-04T19:25:55.993Z,53.42
2023-03-04T19:28:24.153Z,49.63
2023-03-04T19:30:52.712Z,53.00
2023-03-04T19:33:19.928Z,57.50
2023-03-04T19:35:46.800Z,48.63
2023-03-04T19:38:13.760Z,45.78
2023-03-04T19:40:41.413Z,55.03
2023-03-04T19:43:08.371Z,50.88
2023-03-04T19:45:34.889Z,49.83
2023-03-04T19:48:02.988Z,50.17
2023-03-04T19:50:30.030Z,54.20
2023-03-04T19:52:56.532Z,44.60
2023-03-04T19:55:23.066Z,45.95
2023-03-04T19:57:49.621Z,50.25
2023-03-04T20:00:16.657Z,51.88
2023-03-04T20:02:45.036Z,43.65
2023-03-04T20:05:12.336Z,53.38
2023-03-04T20:07:39.713Z,51.58
2023-03-04T20:10:06.750Z,45.38
2023-03-04T20:12:34.212Z,45.80
2023-03-04T20:15:00.640Z,48.00
2023-03-04T20:17:27.083Z,46.58
2023-03-04T20:19:53.533Z,48.75
2023-03-04T20:22:19.947Z,48.50
2023-03-04T20:24:46.349Z,51.45
2023-03-04T20:27:15.352Z,61.30
2023-03-04T20:29:41.852Z,46.28
2023-03-04T20:32:08.388Z,52.38
2023-03-04T20:34:36.755Z,52.13
2023-03-04T20:37:03.181Z,56.63
2023-03-04T20:39:30.319Z,53.95
2023-03-04T20:41:57.999Z,62.22
2023-03-04T20:44:24.436Z,60.55
2023-03-04T20:46:52.407Z,54.00
2023-03-04T20:49:23.396Z,64.28
2023-03-04T20:51:51.303Z,70.55
2023-03-04T20:54:17.750Z,59.30
2023-03-04T20:56:44.265Z,56.78
2023-03-04T20:59:11.769Z,51.50
2023-03-04T21:01:40.196Z,49.72
2023-03-04T21:04:07.417Z,49.95
2023-03-04T21:06:34.240Z,64.10
2023-03-04T21:09:03.484Z,48.80
2023-03-04T21:11:29.929Z,55.22
2023-03-04T21:13:57.662Z,49.95
2023-03-04T21:16:26.863Z,47.50
2023-03-04T21:18:53.633Z,49.88
2023-03-04T21:21:23.049Z,53.58
2023-03-04T21:23:51.430Z,59.10
2023-03-04T21:26:19.120Z,49.38
2023-03-04T21:28:46.420Z,49.17
2023-03-04T21:31:19.107Z,50.97
2023-03-04T21:33:46.312Z,55.88
2023-03-04T21:36:13.877Z,50.92
2023-03-04T21:38:41.580Z,51.45
2023-03-04T21:41:24.597Z,61.50
2023-03-04T21:43:51.591Z,58.03
2023-03-04T21:46:19.032Z,54.33
2023-03-04T21:48:47.521Z,53.25
2023-03-04T21:51:15.443Z,53.25
2023-03-04T21:53:43.338Z,56.67
2023-03-04T21:56:11.572Z,51.25
2023-03-04T21:58:42.014Z,52.80
2023-03-04T22:01:10.508Z,48.30
2023-03-04T22:03:37.314Z,60.75
2023-03-04T22:06:08.114Z,59.25
2023-03-04T22:08:34.882Z,60.70
2023-03-04T22:11:09.661Z,56.67
2023-03-04T22:13:37.406Z,58.70
2023-03-04T22:16:04.954Z,52.22
2023-03-04T22:18:32.003Z,53.65
2023-03-04T22:21:04.173Z,61.35
2023-03-04T22:23:31.128Z,51.42
2023-03-04T22:26:05.763Z,53.30
2023-03-04T22:28:32.793Z,53.22
2023-03-04T22:30:59.563Z,55.60
2023-03-04T22:33:25.985Z,63.22
2023-03-04T22:35:52.764Z,51.05
2023-03-04T22:38:20.692Z,51.72
2023-03-04T22:40:48.930Z,47.70
2023-03-04T22:43:15.348Z,54.90
2023-03-04T22:45:41.792Z,48.88
2023-03-04T22:48:08.205Z,54.13
2023-03-04T22:50:35.025Z,54.45
2023-03-04T22:53:01.453Z,52.15
2023-03-04T22:55:27.888Z,54.05
2023-03-04T22:57:54.328Z,57.60
2023-03-04T23:00:26.261Z,63.65
2023-03-04T23:02:53.007Z,58.60
2023-03-04T23:05:20.906Z,57.15
2023-03-04T23:07:48.200Z,60.95
2023-03-04T23:10:24.793Z,57.25
2023-03-04T23:12:52.532Z,58.33
2023-03-04T23:15:19.727Z,51.47
2023-03-04T23:17:46.672Z,51.58
2023-03-04T23:20:18.799Z,58.70
2023-03-04T23:22:47.561Z,51.47
2023-03-04T23:25:15.354Z,55.10
2023-03-04T23:27:42.845Z,58.25
2023-03-04T23:30:14.865Z,49.58
2023-03-04T23:32:41.860Z,59.15
2023-03-04T23:35:08.838Z,56.53
2023-03-04T23:37:35.267Z,49.97
2023-03-04T23:40:01.998Z,63.35
2023-03-04T23:42:28.491Z,53.10
2023-03-04T23:44:54.896Z,54.33
2023-03-04T23:47:21.309Z,46.95
2023-03-04T23:49:47.964Z,64.03
2023-03-04T23:52:14.351Z,49.22
2023-03-04T23:54:40.742Z,58.08
2023-03-04T23:57:07.134Z,59.17
2023-03-04T23:59:33.542Z,48.53
